Leganes, Spain
Current Conditions -  °F | °C
As of 3:30 PM on Friday 28 Nov 2014 (Local Time) from LEVS Reporting Station
Drizzle Drizzle  
Wind Chill: 50°   Ceiling: 1500
Heat Index: 50°   Visibility: 6mi
Dew Point: 48°   Wind: 5mph
Humidity: 94%   Direction: 130°SE
Pressure: 29.12"   Gusts: NA
Location:  40.33°N, 3.76°W
Report Text: LEVS 281430Z 13004KT 080V150 9999 -DZ SCT010 OVC015 10/09 Q0986
Loading
Personal Weather Stations






























Interactive Weather Map New forecast layout! Learn more

10-Day Weather Forecast

Advertisements
Track Severe Weather on mobile